Morton S Bouchard Jr — WSE9678 — position and weather

sailwx.info

Track history (hours):
 
Tides and Currents Weather Stations Pressure Air Temp Water Temp Dewpoint Dewpoint Depression Visibility Wind Speed Wind Dir Waves Ship Positions

Morton S Bouchard Jr

Owner: BOUCHARD TRANSPORTATION CO INC, MELVILLE, NY. More information available from US FCC via Universal Licensing System and Coast Guard Vessel Documentation Center.

Last reported at 2014-Dec-20 03:31 UTC. Time now 2014-Dec-20 04:29 UTC.
Position N 40°57' W 073°32'.

Length 33 m; draft 6 m.

Type: Tug. MMSI: 367006550.

Date/timePositionNaut miles runAvg speedWind from/ knotsBaromVisibWave heightAir tempDewpointWater temp
2014-Dec-20 03:31N 40°57' W 073°32'6 6.4
2014-Dec-20 02:33N 41°00' W 073°25'7 6.5
2014-Dec-20 01:33N 41°01' W 073°16'7 6.6
2014-Dec-20 00:30N 41°02' W 073°07'6 6.8
2014-Dec-19 23:33N 41°04' W 072°59'7 6.8
2014-Dec-19 22:33N 41°05' W 072°50'7 7.3
2014-Dec-19 21:34N 41°07' W 072°41'7 7.2
2014-Dec-19 20:34N 41°09' W 072°32'7 7.2
2014-Dec-19 19:34N 41°11' W 072°22'7 7.4
2014-Dec-19 18:34N 41°13' W 072°13'7 6.9
2014-Dec-19 17:34N 41°14' W 072°04'6 6.3
2014-Dec-19 16:33N 41°15' W 071°55'7 7.2
2014-Dec-19 15:34N 41°16' W 071°46'7 7.4
2014-Dec-19 14:34N 41°18' W 071°37'7 7.4
2014-Dec-19 13:34N 41°19' W 071°27'9 8.7
2014-Dec-19 12:34N 41°27' W 071°23'9 9.4
2014-Dec-19 11:33N 41°36' W 071°18'9 8.7
2014-Dec-19 10:33N 41°44' W 071°22'4 4.0
2014-Dec-19 09:33N 41°48' W 071°24'0 0.0
2014-Dec-19 08:33N 41°48' W 071°24'0 0.0
2014-Dec-19 07:33N 41°48' W 071°24'0 0.0
2014-Dec-19 06:33N 41°48' W 071°24'0 0.0
2014-Dec-19 05:33N 41°48' W 071°24'0 0.0
2014-Dec-19 04:33N 41°48' W 071°24'0 0.0
2014-Dec-19 03:33N 41°48' W 071°24'0 0.0
2014-Dec-19 02:33N 41°48' W 071°24'0 0.0
2014-Dec-19 01:33N 41°48' W 071°24'0 0.0
2014-Dec-19 00:33N 41°48' W 071°24'0 0.0
2014-Dec-18 23:33N 41°48' W 071°24'0 0.0
2014-Dec-18 22:33N 41°48' W 071°24'6 5.8
2014-Dec-18 21:33N 41°43' W 071°20'9 8.6
2014-Dec-18 20:33N 41°34' W 071°19'4 4.0
2014-Dec-18 19:34N 41°31' W 071°21'7 6.8
2014-Dec-18 18:34N 41°25' W 071°25'7 7.3
2014-Dec-18 17:34N 41°18' W 071°29'9 8.7
2014-Dec-18 16:34N 41°17' W 071°40'9 8.8
2014-Dec-18 15:34N 41°15' W 071°52'9 9.3
2014-Dec-18 14:34N 41°14' W 072°04'9 8.6
2014-Dec-18 13:34N 41°13' W 072°15'8 8.2
2014-Dec-18 12:34N 41°11' W 072°26'8 7.6
2014-Dec-18 11:34N 41°11' W 072°36'7 6.6
2014-Dec-18 10:33N 41°11' W 072°45'6 6.2
2014-Dec-18 09:34N 41°11' W 072°53'3 2.9
2014-Dec-18 08:33N 41°12' W 072°57'6 5.5
2014-Dec-18 07:33N 41°18' W 072°55'0 0.1
2014-Dec-18 06:33N 41°18' W 072°54'0 0.0
2014-Dec-18 05:33N 41°18' W 072°54'0 0.0
2014-Dec-18 04:32N 41°18' W 072°54'0 0.0
2014-Dec-18 03:32N 41°18' W 072°54'0 0.0
2014-Dec-18 02:31N 41°18' W 072°54'0 0.0
2014-Dec-18 01:33N 41°18' W 072°54'0 0.0
2014-Dec-18 00:30N 41°18' W 072°54'0 0.0
2014-Dec-17 23:27N 41°18' W 072°54'0 0.0
2014-Dec-17 22:32N 41°18' W 072°54'0 0.0
2014-Dec-17 21:33N 41°18' W 072°54'0 0.0
2014-Dec-17 19:31N 41°18' W 072°54'0 0.0
2014-Dec-17 18:26N 41°18' W 072°54'0 0.0
2014-Dec-17 17:32N 41°18' W 072°54'0 0.0
2014-Dec-17 16:30N 41°18' W 072°54'0 0.0
2014-Dec-17 15:33N 41°18' W 072°54'0 0.0
2014-Dec-17 14:33N 41°18' W 072°54'0 0.0
2014-Dec-17 13:33N 41°18' W 072°54'3 3.3
2014-Dec-17 12:33N 41°14' W 072°55'6 6.0
2014-Dec-17 11:34N 41°10' W 072°60'7 6.9
2014-Dec-17 10:33N 41°05' W 073°07'8 6.9
2014-Dec-17 09:26N 41°03' W 073°16'30 6.9
2014-Dec-17 05:07N 40°48' W 073°51'4 6.1
2014-Dec-17 04:31N 40°47' W 073°55'5 4.9
2014-Dec-17 03:34N 40°43' W 073°58'5 4.5
2014-Dec-17 02:33N 40°40' W 074°03'0 0.2
2014-Dec-17 01:33N 40°39' W 074°03'0 0.0
2014-Dec-17 00:33N 40°39' W 074°03'0 0.0
2014-Dec-16 23:33N 40°39' W 074°03'2 2.0
2014-Dec-16 22:34N 40°39' W 074°05'6 5.6
2014-Dec-16 21:33N 40°37' W 074°12'4 4.2
2014-Dec-16 20:31N 40°33' W 074°15'0 0.3
2014-Dec-16 19:18N 40°33' W 074°15'0 0.0
2014-Dec-16 18:29N 40°33' W 074°15'0 0.0
2014-Dec-16 17:33N 40°33' W 074°15'0 0.0
2014-Dec-16 16:22N 40°33' W 074°15'0 0.0
2014-Dec-16 15:33N 40°33' W 074°15'0 0.1
2014-Dec-16 14:33N 40°33' W 074°15'3 2.7
2014-Dec-16 13:18N 40°35' W 074°12'0 0.0
2014-Dec-16 12:15N 40°35' W 074°12'0 0.0
2014-Dec-16 11:32N 40°35' W 074°12'0 0.0
2014-Dec-15 22:05N 40°35' W 074°12'3 5.7
2014-Dec-15 21:31N 40°33' W 074°15'3 2.7
2014-Dec-15 20:23N 40°35' W 074°12'4 5.1
2014-Dec-15 19:34N 40°38' W 074°09'0 0.2
2014-Dec-15 18:33N 40°38' W 074°10'2 1.8
2014-Dec-15 17:33N 40°39' W 074°07'0 0.0
2014-Dec-15 16:34N 40°39' W 074°07'0 0.0
2014-Dec-15 15:33N 40°39' W 074°07'0 0.0
2014-Dec-15 14:33N 40°39' W 074°07'0 0.0
2014-Dec-15 13:34N 40°39' W 074°07'0 0.0
2014-Dec-15 12:33N 40°39' W 074°07'0 0.0
2014-Dec-15 11:33N 40°39' W 074°07'0 0.0
2014-Dec-15 10:33N 40°39' W 074°07'0 0.0
2014-Dec-15 09:33N 40°39' W 074°07'0 0.0
2014-Dec-15 08:33N 40°39' W 074°07'0 0.0
2014-Dec-15 07:33N 40°39' W 074°07'0 0.0
2014-Dec-15 06:33N 40°39' W 074°07'0 0.0
2014-Dec-15 05:33N 40°39' W 074°07'0 0.0
2014-Dec-15 04:34N 40°39' W 074°07'6 5.7
2014-Dec-15 03:33N 40°42' W 074°01'6 5.7
2014-Dec-15 02:33N 40°46' W 073°56'5 4.7
2014-Dec-15 01:33N 40°42' W 073°59'1 1.3
2014-Dec-15 00:33N 40°41' W 074°00'0 0.0
2014-Dec-14 23:33N 40°41' W 074°00'7 7.3
2014-Dec-14 22:33N 40°39' W 074°09'4 3.6
2014-Dec-14 21:32N 40°36' W 074°12'0 0.0
2014-Dec-14 20:33N 40°36' W 074°12'0 0.0
2014-Dec-14 19:33N 40°36' W 074°12'0 0.0
2014-Dec-14 18:33N 40°36' W 074°12'0 0.0
2014-Dec-14 17:33N 40°36' W 074°12'0 0.0
2014-Dec-14 16:33N 40°36' W 074°12'0 0.0
2014-Dec-14 15:33N 40°36' W 074°12'0 0.0
2014-Dec-14 14:33N 40°36' W 074°12'0 0.0
2014-Dec-14 13:33N 40°36' W 074°12'0 0.0
2014-Dec-14 12:34N 40°36' W 074°12'0 0.0
2014-Dec-14 11:33N 40°36' W 074°12'0 0.0
2014-Dec-14 10:33N 40°36' W 074°12'0 0.0
2014-Dec-14 09:33N 40°36' W 074°12'0 0.0
2014-Dec-14 08:34N 40°36' W 074°12'0 0.0
2014-Dec-14 07:33N 40°36' W 074°12'0 0.0
2014-Dec-14 06:33N 40°36' W 074°12'0 0.0
2014-Dec-14 05:34N 40°36' W 074°12'0 0.0
2014-Dec-14 04:33N 40°36' W 074°12'0 0.0
2014-Dec-14 03:33N 40°36' W 074°12'0 0.0
2014-Dec-14 02:34N 40°36' W 074°12'0 0.0
2014-Dec-14 01:34N 40°36' W 074°12'0 0.0
2014-Dec-14 00:33N 40°36' W 074°12'0 0.1
2014-Dec-13 23:33N 40°36' W 074°12'1 0.4
2014-Dec-13 22:16N 40°35' W 074°12'1 0.6
2014-Dec-13 21:24N 40°36' W 074°12'1 0.8
2014-Dec-13 20:18N 40°35' W 074°13'1 1.2
2014-Dec-13 19:31N 40°36' W 074°12'5 4.6
2014-Dec-13 18:33N 40°39' W 074°07'0 0.0
2014-Dec-13 17:33N 40°39' W 074°07'0 0.1
2014-Dec-13 16:33N 40°39' W 074°07'0 0.0
2014-Dec-13 15:33N 40°39' W 074°07'0 0.0
2014-Dec-13 14:33N 40°39' W 074°07'0 0.1
2014-Dec-13 13:31N 40°39' W 074°07'0 0.0
2014-Dec-13 12:33N 40°39' W 074°07'0 0.0
2014-Dec-13 11:31N 40°39' W 074°07'0 0.0
2014-Dec-13 10:30N 40°39' W 074°07'0 0.0
2014-Dec-13 09:26N 40°39' W 074°07'0 0.0
2014-Dec-13 07:33N 40°39' W 074°07'0 0.0
2014-Dec-13 06:27N 40°39' W 074°07'0 0.0
2014-Dec-13 05:24N 40°39' W 074°07'0 0.0
2014-Dec-13 04:33N 40°39' W 074°07'5 3.1
2014-Dec-13 03:04N 40°36' W 074°12'3 6.2
2014-Dec-13 02:33N 40°39' W 074°10'3 2.5
2014-Dec-13 01:34N 40°39' W 074°07'1 0.6
2014-Dec-13 00:33N 40°39' W 074°07'0 0.0
2014-Dec-12 23:34N 40°39' W 074°07'0 0.0
2014-Dec-12 22:34N 40°39' W 074°07'0 0.0
2014-Dec-12 21:33N 40°39' W 074°07'3 2.6
2014-Dec-12 20:33N 40°39' W 074°10'4 2.7
2014-Dec-12 19:05N 40°35' W 074°12'3 5.0
2014-Dec-12 18:33N 40°38' W 074°12'2 2.1
2014-Dec-12 17:33N 40°38' W 074°09'4 3.7
2014-Dec-12 16:33N 40°39' W 074°05'2 2.5
2014-Dec-12 15:33N 40°37' W 074°03'2 2.4
2014-Dec-12 14:33N 40°39' W 074°03'3 3.2
2014-Dec-12 13:33N 40°42' W 074°02'5 4.7
2014-Dec-12 12:33N 40°46' W 073°57'9 6.3
2014-Dec-12 11:04N 40°50' W 073°46'34 8.6
2014-Dec-12 07:05N 41°06' W 073°06'5 8.8
2014-Dec-12 06:33N 41°09' W 073°01'7 7.4
2014-Dec-12 05:34N 41°14' W 072°55'4 3.6
2014-Dec-12 04:33N 41°18' W 072°54'0 0.0
2014-Dec-12 03:33N 41°18' W 072°54'0 0.0
2014-Dec-12 02:33N 41°18' W 072°54'0 0.0
2014-Dec-12 01:30N 41°18' W 072°54'0 0.0
2014-Dec-12 00:32N 41°18' W 072°54'0 0.0
2014-Dec-11 23:33N 41°18' W 072°54'0 0.0
2014-Dec-11 22:33N 41°18' W 072°54'0 0.0
2014-Dec-11 21:33N 41°18' W 072°54'0 0.0
2014-Dec-11 20:32N 41°18' W 072°54'0 0.0
2014-Dec-11 19:30N 41°18' W 072°54'0 0.0
2014-Dec-11 18:33N 41°18' W 072°54'0 0.0
2014-Dec-11 17:33N 41°18' W 072°54'0 0.0
2014-Dec-11 16:29N 41°18' W 072°54'0 0.0
2014-Dec-11 15:31N 41°18' W 072°54'0 0.0
2014-Dec-11 14:31N 41°18' W 072°54'0 0.0
2014-Dec-11 13:33N 41°18' W 072°54'0 0.0
2014-Dec-11 12:33N 41°18' W 072°54'0 0.0
2014-Dec-11 11:33N 41°18' W 072°54'0 0.0
2014-Dec-11 10:34N 41°18' W 072°54'6 5.8
2014-Dec-11 09:34N 41°12' W 072°54'2 1.8
2014-Dec-11 08:34N 41°12' W 072°52'2 2.5
2014-Dec-11 07:34N 41°11' W 072°55'5 4.8
2014-Dec-11 06:34N 41°09' W 073°01'7 7.2
2014-Dec-11 05:33N 41°05' W 073°08'10 7.3
2014-Dec-11 04:13N 41°03' W 073°21'5 7.3
2014-Dec-11 03:33N 41°01' W 073°27'15 7.3
2014-Dec-11 01:27N 40°53' W 073°45'7 6.2
2014-Dec-11 00:16N 40°48' W 073°51'5 6.0
2014-Dec-10 23:26N 40°46' W 073°57'5 5.3
2014-Dec-10 22:33N 40°42' W 074°00'4 3.5
2014-Dec-10 21:33N 40°39' W 074°03'0 0.0
2014-Dec-10 20:34N 40°39' W 074°03'0 0.0
2014-Dec-10 19:34N 40°39' W 074°03'1 1.2
2014-Dec-10 18:34N 40°39' W 074°05'6 5.9
2014-Dec-10 17:34N 40°38' W 074°12'6 5.0
2014-Dec-10 16:21N 40°32' W 074°15'0 0.0
2014-Dec-10 04:21N 40°32' W 074°15'  
Track history (hours):
 
Tides and Currents Weather Stations Pressure Air Temp Water Temp Dewpoint Dewpoint Depression Visibility Wind Speed Wind Dir Waves Ship Positions

Morton S Bouchard Jr

Owner: BOUCHARD TRANSPORTATION CO INC, MELVILLE, NY. More information available from US FCC via Universal Licensing System and Coast Guard Vessel Documentation Center.

Last reported at 2014-Dec-20 03:31 UTC. Time now 2014-Dec-20 04:29 UTC.
Position N 40°57' W 073°32'.

Length 33 m; draft 6 m.

Type: Tug. MMSI: 367006550.

Date/timePositionNaut miles runAvg speedWind from/ knotsBaromVisibWave heightAir tempDewpointWater temp
2014-Dec-20 03:31N 40°57' W 073°32'6 6.4
2014-Dec-20 02:33N 41°00' W 073°25'7 6.5
2014-Dec-20 01:33N 41°01' W 073°16'7 6.6
2014-Dec-20 00:30N 41°02' W 073°07'6 6.8
2014-Dec-19 23:33N 41°04' W 072°59'7 6.8
2014-Dec-19 22:33N 41°05' W 072°50'7 7.3
2014-Dec-19 21:34N 41°07' W 072°41'7 7.2
2014-Dec-19 20:34N 41°09' W 072°32'7 7.2
2014-Dec-19 19:34N 41°11' W 072°22'7 7.4
2014-Dec-19 18:34N 41°13' W 072°13'7 6.9
2014-Dec-19 17:34N 41°14' W 072°04'6 6.3
2014-Dec-19 16:33N 41°15' W 071°55'7 7.2
2014-Dec-19 15:34N 41°16' W 071°46'7 7.4
2014-Dec-19 14:34N 41°18' W 071°37'7 7.4
2014-Dec-19 13:34N 41°19' W 071°27'9 8.7
2014-Dec-19 12:34N 41°27' W 071°23'9 9.4
2014-Dec-19 11:33N 41°36' W 071°18'9 8.7
2014-Dec-19 10:33N 41°44' W 071°22'4 4.0
2014-Dec-19 09:33N 41°48' W 071°24'0 0.0
2014-Dec-19 08:33N 41°48' W 071°24'0 0.0
2014-Dec-19 07:33N 41°48' W 071°24'0 0.0
2014-Dec-19 06:33N 41°48' W 071°24'0 0.0
2014-Dec-19 05:33N 41°48' W 071°24'0 0.0
2014-Dec-19 04:33N 41°48' W 071°24'0 0.0
2014-Dec-19 03:33N 41°48' W 071°24'0 0.0
2014-Dec-19 02:33N 41°48' W 071°24'0 0.0
2014-Dec-19 01:33N 41°48' W 071°24'0 0.0
2014-Dec-19 00:33N 41°48' W 071°24'0 0.0
2014-Dec-18 23:33N 41°48' W 071°24'0 0.0
2014-Dec-18 22:33N 41°48' W 071°24'6 5.8
2014-Dec-18 21:33N 41°43' W 071°20'9 8.6
2014-Dec-18 20:33N 41°34' W 071°19'4 4.0
2014-Dec-18 19:34N 41°31' W 071°21'7 6.8
2014-Dec-18 18:34N 41°25' W 071°25'7 7.3
2014-Dec-18 17:34N 41°18' W 071°29'9 8.7
2014-Dec-18 16:34N 41°17' W 071°40'9 8.8
2014-Dec-18 15:34N 41°15' W 071°52'9 9.3
2014-Dec-18 14:34N 41°14' W 072°04'9 8.6
2014-Dec-18 13:34N 41°13' W 072°15'8 8.2
2014-Dec-18 12:34N 41°11' W 072°26'8 7.6
2014-Dec-18 11:34N 41°11' W 072°36'7 6.6
2014-Dec-18 10:33N 41°11' W 072°45'6 6.2
2014-Dec-18 09:34N 41°11' W 072°53'3 2.9
2014-Dec-18 08:33N 41°12' W 072°57'6 5.5
2014-Dec-18 07:33N 41°18' W 072°55'0 0.1
2014-Dec-18 06:33N 41°18' W 072°54'0 0.0
2014-Dec-18 05:33N 41°18' W 072°54'0 0.0
2014-Dec-18 04:32N 41°18' W 072°54'0 0.0
2014-Dec-18 03:32N 41°18' W 072°54'0 0.0
2014-Dec-18 02:31N 41°18' W 072°54'0 0.0
2014-Dec-18 01:33N 41°18' W 072°54'0 0.0
2014-Dec-18 00:30N 41°18' W 072°54'0 0.0
2014-Dec-17 23:27N 41°18' W 072°54'0 0.0
2014-Dec-17 22:32N 41°18' W 072°54'0 0.0
2014-Dec-17 21:33N 41°18' W 072°54'0 0.0
2014-Dec-17 19:31N 41°18' W 072°54'0 0.0
2014-Dec-17 18:26N 41°18' W 072°54'0 0.0
2014-Dec-17 17:32N 41°18' W 072°54'0 0.0
2014-Dec-17 16:30N 41°18' W 072°54'0 0.0
2014-Dec-17 15:33N 41°18' W 072°54'0 0.0
2014-Dec-17 14:33N 41°18' W 072°54'0 0.0
2014-Dec-17 13:33N 41°18' W 072°54'3 3.3
2014-Dec-17 12:33N 41°14' W 072°55'6 6.0
2014-Dec-17 11:34N 41°10' W 072°60'7 6.9
2014-Dec-17 10:33N 41°05' W 073°07'8 6.9
2014-Dec-17 09:26N 41°03' W 073°16'30 6.9
2014-Dec-17 05:07N 40°48' W 073°51'4 6.1
2014-Dec-17 04:31N 40°47' W 073°55'5 4.9
2014-Dec-17 03:34N 40°43' W 073°58'5 4.5
2014-Dec-17 02:33N 40°40' W 074°03'0 0.2
2014-Dec-17 01:33N 40°39' W 074°03'0 0.0
2014-Dec-17 00:33N 40°39' W 074°03'0 0.0
2014-Dec-16 23:33N 40°39' W 074°03'2 2.0
2014-Dec-16 22:34N 40°39' W 074°05'6 5.6
2014-Dec-16 21:33N 40°37' W 074°12'4 4.2
2014-Dec-16 20:31N 40°33' W 074°15'0 0.3
2014-Dec-16 19:18N 40°33' W 074°15'0 0.0
2014-Dec-16 18:29N 40°33' W 074°15'0 0.0
2014-Dec-16 17:33N 40°33' W 074°15'0 0.0
2014-Dec-16 16:22N 40°33' W 074°15'0 0.0
2014-Dec-16 15:33N 40°33' W 074°15'0 0.1
2014-Dec-16 14:33N 40°33' W 074°15'3 2.7
2014-Dec-16 13:18N 40°35' W 074°12'0 0.0
2014-Dec-16 12:15N 40°35' W 074°12'0 0.0
2014-Dec-16 11:32N 40°35' W 074°12'0 0.0
2014-Dec-15 22:05N 40°35' W 074°12'3 5.7
2014-Dec-15 21:31N 40°33' W 074°15'3 2.7
2014-Dec-15 20:23N 40°35' W 074°12'4 5.1
2014-Dec-15 19:34N 40°38' W 074°09'0 0.2
2014-Dec-15 18:33N 40°38' W 074°10'2 1.8
2014-Dec-15 17:33N 40°39' W 074°07'0 0.0
2014-Dec-15 16:34N 40°39' W 074°07'0 0.0
2014-Dec-15 15:33N 40°39' W 074°07'0 0.0
2014-Dec-15 14:33N 40°39' W 074°07'0 0.0
2014-Dec-15 13:34N 40°39' W 074°07'0 0.0
2014-Dec-15 12:33N 40°39' W 074°07'0 0.0
2014-Dec-15 11:33N 40°39' W 074°07'0 0.0
2014-Dec-15 10:33N 40°39' W 074°07'0 0.0
2014-Dec-15 09:33N 40°39' W 074°07'0 0.0
2014-Dec-15 08:33N 40°39' W 074°07'0 0.0
2014-Dec-15 07:33N 40°39' W 074°07'0 0.0
2014-Dec-15 06:33N 40°39' W 074°07'0 0.0
2014-Dec-15 05:33N 40°39' W 074°07'0 0.0
2014-Dec-15 04:34N 40°39' W 074°07'6 5.7
2014-Dec-15 03:33N 40°42' W 074°01'6 5.7
2014-Dec-15 02:33N 40°46' W 073°56'5 4.7
2014-Dec-15 01:33N 40°42' W 073°59'1 1.3
2014-Dec-15 00:33N 40°41' W 074°00'0 0.0
2014-Dec-14 23:33N 40°41' W 074°00'7 7.3
2014-Dec-14 22:33N 40°39' W 074°09'4 3.6
2014-Dec-14 21:32N 40°36' W 074°12'0 0.0
2014-Dec-14 20:33N 40°36' W 074°12'0 0.0
2014-Dec-14 19:33N 40°36' W 074°12'0 0.0
2014-Dec-14 18:33N 40°36' W 074°12'0 0.0
2014-Dec-14 17:33N 40°36' W 074°12'0 0.0
2014-Dec-14 16:33N 40°36' W 074°12'0 0.0
2014-Dec-14 15:33N 40°36' W 074°12'0 0.0
2014-Dec-14 14:33N 40°36' W 074°12'0 0.0
2014-Dec-14 13:33N 40°36' W 074°12'0 0.0
2014-Dec-14 12:34N 40°36' W 074°12'0 0.0
2014-Dec-14 11:33N 40°36' W 074°12'0 0.0
2014-Dec-14 10:33N 40°36' W 074°12'0 0.0
2014-Dec-14 09:33N 40°36' W 074°12'0 0.0
2014-Dec-14 08:34N 40°36' W 074°12'0 0.0
2014-Dec-14 07:33N 40°36' W 074°12'0 0.0
2014-Dec-14 06:33N 40°36' W 074°12'0 0.0
2014-Dec-14 05:34N 40°36' W 074°12'0 0.0
2014-Dec-14 04:33N 40°36' W 074°12'0 0.0
2014-Dec-14 03:33N 40°36' W 074°12'0 0.0
2014-Dec-14 02:34N 40°36' W 074°12'0 0.0
2014-Dec-14 01:34N 40°36' W 074°12'0 0.0
2014-Dec-14 00:33N 40°36' W 074°12'0 0.1
2014-Dec-13 23:33N 40°36' W 074°12'1 0.4
2014-Dec-13 22:16N 40°35' W 074°12'1 0.6
2014-Dec-13 21:24N 40°36' W 074°12'1 0.8
2014-Dec-13 20:18N 40°35' W 074°13'1 1.2
2014-Dec-13 19:31N 40°36' W 074°12'5 4.6
2014-Dec-13 18:33N 40°39' W 074°07'0 0.0
2014-Dec-13 17:33N 40°39' W 074°07'0 0.1
2014-Dec-13 16:33N 40°39' W 074°07'0 0.0
2014-Dec-13 15:33N 40°39' W 074°07'0 0.0
2014-Dec-13 14:33N 40°39' W 074°07'0 0.1
2014-Dec-13 13:31N 40°39' W 074°07'0 0.0
2014-Dec-13 12:33N 40°39' W 074°07'0 0.0
2014-Dec-13 11:31N 40°39' W 074°07'0 0.0
2014-Dec-13 10:30N 40°39' W 074°07'0 0.0
2014-Dec-13 09:26N 40°39' W 074°07'0 0.0
2014-Dec-13 07:33N 40°39' W 074°07'0 0.0
2014-Dec-13 06:27N 40°39' W 074°07'0 0.0
2014-Dec-13 05:24N 40°39' W 074°07'0 0.0
2014-Dec-13 04:33N 40°39' W 074°07'5 3.1
2014-Dec-13 03:04N 40°36' W 074°12'3 6.2
2014-Dec-13 02:33N 40°39' W 074°10'3 2.5
2014-Dec-13 01:34N 40°39' W 074°07'1 0.6
2014-Dec-13 00:33N 40°39' W 074°07'0 0.0
2014-Dec-12 23:34N 40°39' W 074°07'0 0.0
2014-Dec-12 22:34N 40°39' W 074°07'0 0.0
2014-Dec-12 21:33N 40°39' W 074°07'3 2.6
2014-Dec-12 20:33N 40°39' W 074°10'4 2.7
2014-Dec-12 19:05N 40°35' W 074°12'3 5.0
2014-Dec-12 18:33N 40°38' W 074°12'2 2.1
2014-Dec-12 17:33N 40°38' W 074°09'4 3.7
2014-Dec-12 16:33N 40°39' W 074°05'2 2.5
2014-Dec-12 15:33N 40°37' W 074°03'2 2.4
2014-Dec-12 14:33N 40°39' W 074°03'3 3.2
2014-Dec-12 13:33N 40°42' W 074°02'5 4.7
2014-Dec-12 12:33N 40°46' W 073°57'9 6.3
2014-Dec-12 11:04N 40°50' W 073°46'34 8.6
2014-Dec-12 07:05N 41°06' W 073°06'5 8.8
2014-Dec-12 06:33N 41°09' W 073°01'7 7.4
2014-Dec-12 05:34N 41°14' W 072°55'4 3.6
2014-Dec-12 04:33N 41°18' W 072°54'0 0.0
2014-Dec-12 03:33N 41°18' W 072°54'0 0.0
2014-Dec-12 02:33N 41°18' W 072°54'0 0.0
2014-Dec-12 01:30N 41°18' W 072°54'0 0.0
2014-Dec-12 00:32N 41°18' W 072°54'0 0.0
2014-Dec-11 23:33N 41°18' W 072°54'0 0.0
2014-Dec-11 22:33N 41°18' W 072°54'0 0.0
2014-Dec-11 21:33N 41°18' W 072°54'0 0.0
2014-Dec-11 20:32N 41°18' W 072°54'0 0.0
2014-Dec-11 19:30N 41°18' W 072°54'0 0.0
2014-Dec-11 18:33N 41°18' W 072°54'0 0.0
2014-Dec-11 17:33N 41°18' W 072°54'0 0.0
2014-Dec-11 16:29N 41°18' W 072°54'0 0.0
2014-Dec-11 15:31N 41°18' W 072°54'0 0.0
2014-Dec-11 14:31N 41°18' W 072°54'0 0.0
2014-Dec-11 13:33N 41°18' W 072°54'0 0.0
2014-Dec-11 12:33N 41°18' W 072°54'0 0.0
2014-Dec-11 11:33N 41°18' W 072°54'0 0.0
2014-Dec-11 10:34N 41°18' W 072°54'6 5.8
2014-Dec-11 09:34N 41°12' W 072°54'2 1.8
2014-Dec-11 08:34N 41°12' W 072°52'2 2.5
2014-Dec-11 07:34N 41°11' W 072°55'5 4.8
2014-Dec-11 06:34N 41°09' W 073°01'7 7.2
2014-Dec-11 05:33N 41°05' W 073°08'10 7.3
2014-Dec-11 04:13N 41°03' W 073°21'5 7.3
2014-Dec-11 03:33N 41°01' W 073°27'15 7.3
2014-Dec-11 01:27N 40°53' W 073°45'7 6.2
2014-Dec-11 00:16N 40°48' W 073°51'5 6.0
2014-Dec-10 23:26N 40°46' W 073°57'5 5.3
2014-Dec-10 22:33N 40°42' W 074°00'4 3.5
2014-Dec-10 21:33N 40°39' W 074°03'0 0.0
2014-Dec-10 20:34N 40°39' W 074°03'0 0.0
2014-Dec-10 19:34N 40°39' W 074°03'1 1.2
2014-Dec-10 18:34N 40°39' W 074°05'6 5.9
2014-Dec-10 17:34N 40°38' W 074°12'6 5.0
2014-Dec-10 16:21N 40°32' W 074°15'0 0.0
2014-Dec-10 04:21N 40°32' W 074°15'  

Dump ship's entire track history